Time;durP1;ratioP1;P1;durP2;ratioP2;P2;SDS_P1;SDS_P2;PMS_P1;PMS_P2;Temp;Humidity;BMP_temperature;BMP_pressure;BME280_temperature;BME280_humidity;BME280_pressure;Samples;Min_cycle;Max_cycle;Signal;HPM_P1;HPM_P2
2023/02/25 04:11:15;;;;;;;6.93;2.08;;;3.30;99.90;;;;;;5091073;28;21137;-62
2023/02/25 04:13:41;;;;;;;12.50;2.00;;;3.30;99.90;;;;;;5090909;28;20196;-63
2023/02/25 04:16:08;;;;;;;11.73;1.65;;;3.30;99.90;;;;;;5090964;28;20196;-63
2023/02/25 04:18:35;;;;;;;5.50;1.92;;;3.30;99.90;;;;;;5090825;28;20216;-63
2023/02/25 04:21:02;;;;;;;9.88;2.08;;;3.30;99.90;;;;;;5091062;28;20231;-62
2023/02/25 04:23:31;;;;;;;8.52;2.33;;;3.30;99.90;;;;;;5090783;28;20211;-63
2023/02/25 04:25:58;;;;;;;4.88;1.67;;;3.30;99.90;;;;;;5091521;28;20206;-62
2023/02/25 04:28:26;;;;;;;7.45;2.80;;;3.40;99.90;;;;;;5090660;28;20205;-63
2023/02/25 04:30:53;;;;;;;6.78;1.90;;;3.40;99.90;;;;;;5090512;28;20220;-62
2023/02/25 04:33:19;;;;;;;2.55;2.03;;;3.40;99.90;;;;;;5090425;28;20545;-63
2023/02/25 04:35:46;;;;;;;3.25;2.03;;;3.40;99.90;;;;;;5090342;28;20207;-62
2023/02/25 04:38:13;;;;;;;3.03;1.45;;;3.40;99.90;;;;;;5090321;28;20204;-63
2023/02/25 04:40:40;;;;;;;3.67;2.53;;;3.40;99.90;;;;;;5090323;28;20193;-64
2023/02/25 04:43:08;;;;;;;6.68;1.85;;;3.40;99.90;;;;;;5090398;28;20205;-63
2023/02/25 04:45:36;;;;;;;3.75;1.80;;;3.40;99.90;;;;;;5089912;28;20299;-62
2023/02/25 04:48:03;;;;;;;3.05;2.20;;;3.40;99.90;;;;;;5090295;28;20206;-63
2023/02/25 04:50:30;;;;;;;3.70;2.67;;;3.40;99.90;;;;;;5089857;28;20690;-63
2023/02/25 04:53:01;;;;;;;7.40;2.35;;;3.40;99.90;;;;;;5090208;28;20213;-63
2023/02/25 04:55:27;;;;;;;5.43;1.70;;;3.50;99.90;;;;;;5090126;28;20185;-62
2023/02/25 04:57:54;;;;;;;3.53;1.60;;;3.40;99.90;;;;;;5090209;28;20208;-63
2023/02/25 05:00:24;;;;;;;7.25;1.65;;;3.40;99.90;;;;;;5089787;28;20224;-63
2023/02/25 05:02:52;;;;;;;7.20;2.25;;;3.40;99.90;;;;;;5089901;28;20207;-62
2023/02/25 05:05:19;;;;;;;9.93;2.10;;;3.40;99.90;;;;;;5090892;28;20279;-62
2023/02/25 05:07:46;;;;;;;7.13;2.13;;;3.40;99.90;;;;;;5089972;28;20211;-63
2023/02/25 05:10:14;;;;;;;3.50;1.30;;;3.40;99.90;;;;;;5089620;28;20220;-62
2023/02/25 05:12:41;;;;;;;3.30;1.30;;;3.40;99.90;;;;;;5090039;28;20208;-63
2023/02/25 05:15:10;;;;;;;6.80;1.05;;;3.40;99.90;;;;;;5090308;28;20196;-62
2023/02/25 05:17:36;;;;;;;2.85;1.60;;;3.40;99.90;;;;;;5089944;28;20207;-63
2023/02/25 05:20:10;;;;;;;5.93;1.25;;;3.40;99.90;;;;;;5089819;28;20220;-63
2023/02/25 05:22:37;;;;;;;3.08;1.08;;;3.40;99.90;;;;;;5076356;28;20625;-63
2023/02/25 05:25:05;;;;;;;5.03;1.60;;;3.40;99.90;;;;;;5076194;28;20201;-63
2023/02/25 05:27:32;;;;;;;6.53;1.60;;;3.40;99.90;;;;;;5076104;28;20288;-63
2023/02/25 05:29:59;;;;;;;4.40;1.80;;;3.30;99.90;;;;;;5076195;28;20221;-62
2023/02/25 05:32:25;;;;;;;8.10;1.77;;;3.30;99.90;;;;;;5076162;28;20205;-62
2023/02/25 05:34:52;;;;;;;2.28;1.52;;;3.30;99.90;;;;;;5076357;28;20205;-62
2023/02/25 05:37:21;;;;;;;3.05;1.60;;;3.30;99.90;;;;;;5076595;28;20205;-62
2023/02/25 05:39:47;;;;;;;4.72;1.70;;;3.30;99.90;;;;;;5077066;28;20241;-63
2023/02/25 05:42:14;;;;;;;3.20;1.30;;;3.30;99.90;;;;;;5076643;28;20201;-63
2023/02/25 05:44:41;;;;;;;6.75;2.05;;;3.30;99.90;;;;;;5076353;28;20208;-62
2023/02/25 05:47:08;;;;;;;2.30;1.58;;;3.30;99.90;;;;;;5077667;28;20201;-63
2023/02/25 05:49:35;;;;;;;5.53;2.00;;;3.30;99.90;;;;;;5077523;28;20221;-63
2023/02/25 05:52:01;;;;;;;1.75;1.27;;;3.30;99.90;;;;;;5077362;28;20232;-63
2023/02/25 05:54:29;;;;;;;2.33;1.02;;;3.30;99.90;;;;;;5077014;28;20205;-63
2023/02/25 05:56:56;;;;;;;2.58;1.38;;;3.30;99.90;;;;;;5076978;28;20205;-62
2023/02/25 05:59:23;;;;;;;2.50;0.90;;;3.20;99.90;;;;;;5077774;28;20221;-63
2023/02/25 06:01:50;;;;;;;1.50;1.23;;;3.20;99.90;;;;;;5077489;28;20207;-63
2023/02/25 06:04:16;;;;;;;1.65;1.20;;;3.20;99.90;;;;;;5077901;28;20209;-62
2023/02/25 06:06:49;;;;;;;2.90;0.70;;;3.10;99.90;;;;;;5077920;28;20204;-62
2023/02/25 06:09:17;;;;;;;3.83;1.10;;;3.10;99.90;;;;;;5077048;28;20240;-63
2023/02/25 06:11:47;;;;;;;4.13;1.20;;;3.10;99.90;;;;;;5077338;28;20216;-62
2023/02/25 06:14:14;;;;;;;2.38;1.15;;;3.00;99.90;;;;;;5076030;28;20212;-62
2023/02/25 06:16:43;;;;;;;0.80;0.60;;;3.00;99.90;;;;;;5076432;28;20209;-62
2023/02/25 06:19:10;;;;;;;1.77;1.00;;;3.00;99.90;;;;;;5076295;28;20232;-62
2023/02/25 06:21:38;;;;;;;2.33;0.98;;;2.90;99.90;;;;;;5077088;28;20225;-63
2023/02/25 06:24:06;;;;;;;2.55;1.30;;;2.90;99.90;;;;;;5075500;28;20527;-63
2023/02/25 06:26:34;;;;;;;3.65;1.80;;;2.90;99.90;;;;;;5075756;28;20580;-63
2023/02/25 06:29:02;;;;;;;2.03;0.95;;;2.90;99.90;;;;;;5075473;28;20217;-62
2023/02/25 06:31:29;;;;;;;3.72;1.00;;;2.90;99.90;;;;;;5075684;28;20213;-62
2023/02/25 06:33:55;;;;;;;2.30;1.00;;;2.90;99.90;;;;;;5074224;28;20197;-63
2023/02/25 06:36:22;;;;;;;1.85;1.60;;;2.90;99.90;;;;;;5075205;28;20216;-63
2023/02/25 06:38:49;;;;;;;1.70;1.23;;;2.90;99.90;;;;;;5075869;28;20224;-63
2023/02/25 06:41:18;;;;;;;4.25;1.40;;;2.90;99.90;;;;;;5076714;28;20208;-63
2023/02/25 06:43:45;;;;;;;3.35;1.50;;;2.90;99.90;;;;;;5074186;28;20208;-64
2023/02/25 06:46:15;;;;;;;1.55;1.27;;;2.90;99.90;;;;;;5067829;28;20201;-63
2023/02/25 06:48:41;;;;;;;4.07;1.30;;;2.90;99.90;;;;;;5058769;28;20225;-62
2023/02/25 06:51:09;;;;;;;1.77;1.00;;;2.90;99.90;;;;;;5057712;28;20214;-63
2023/02/25 06:53:36;;;;;;;3.75;1.40;;;2.90;99.90;;;;;;5059445;28;20705;-61
2023/02/25 06:56:03;;;;;;;5.28;1.25;;;2.90;99.90;;;;;;5074658;28;20201;-61
2023/02/25 06:58:29;;;;;;;3.35;1.20;;;2.90;99.90;;;;;;5066379;28;20205;-62
2023/02/25 07:00:57;;;;;;;2.88;0.77;;;2.90;99.90;;;;;;5065763;28;20654;-62
2023/02/25 07:03:25;;;;;;;1.92;0.90;;;2.90;99.90;;;;;;5057513;28;20576;-63
2023/02/25 07:05:52;;;;;;;3.10;1.33;;;2.90;99.90;;;;;;5060679;28;20201;-63
2023/02/25 07:08:19;;;;;;;1.60;1.27;;;2.90;99.90;;;;;;5057268;28;20204;-63
2023/02/25 07:10:45;;;;;;;3.38;0.98;;;2.90;99.90;;;;;;5055757;28;20214;-64
2023/02/25 07:13:13;;;;;;;2.08;0.93;;;2.90;99.90;;;;;;5062647;28;20197;-62
2023/02/25 07:15:39;;;;;;;2.75;1.13;;;2.90;99.90;;;;;;5055755;28;20228;-63
2023/02/25 07:18:06;;;;;;;2.03;0.88;;;2.90;99.90;;;;;;5060354;28;20568;-64
2023/02/25 07:20:34;;;;;;;3.15;0.82;;;2.90;99.90;;;;;;5059866;28;20222;-63
2023/02/25 07:23:02;;;;;;;1.90;0.70;;;2.90;99.90;;;;;;5068511;28;20201;-64
2023/02/25 07:25:29;;;;;;;1.83;1.15;;;2.90;99.90;;;;;;5062549;28;20197;-64
2023/02/25 07:27:56;;;;;;;2.25;1.00;;;2.80;99.90;;;;;;5058027;28;20206;-63
2023/02/25 07:30:23;;;;;;;2.70;1.25;;;2.80;99.90;;;;;;5062783;28;20225;-64
2023/02/25 07:32:49;;;;;;;1.95;0.90;;;2.80;99.90;;;;;;5057682;28;20208;-64
2023/02/25 07:35:16;;;;;;;1.75;0.90;;;2.90;99.90;;;;;;5068532;28;20625;-62
2023/02/25 07:37:44;;;;;;;1.30;0.90;;;2.90;99.90;;;;;;5062073;28;20201;-62
2023/02/25 07:40:12;;;;;;;0.68;0.57;;;3.00;99.90;;;;;;5059244;28;20253;-63
2023/02/25 07:42:40;;;;;;;0.65;0.50;;;3.00;99.90;;;;;;5053949;28;20198;-64
2023/02/25 07:45:09;;;;;;;1.35;0.90;;;3.00;99.90;;;;;;5059747;28;20229;-64
2023/02/25 07:47:36;;;;;;;1.25;0.98;;;3.10;99.90;;;;;;5073561;28;20205;-63
2023/02/25 07:50:04;;;;;;;3.58;1.10;;;3.10;99.90;;;;;;5072920;28;20224;-63
2023/02/25 07:52:30;;;;;;;1.63;1.15;;;3.10;99.90;;;;;;5053971;28;20212;-63
2023/02/25 07:54:58;;;;;;;1.80;0.70;;;3.20;99.90;;;;;;5065295;28;20209;-62
2023/02/25 07:57:25;;;;;;;1.23;0.65;;;3.30;99.90;;;;;;5055915;28;20682;-63
2023/02/25 07:59:52;;;;;;;3.55;0.82;;;3.30;99.90;;;;;;5058559;28;20221;-63
2023/02/25 08:02:20;;;;;;;0.88;0.70;;;3.30;99.90;;;;;;5054252;28;20202;-61
2023/02/25 08:04:46;;;;;;;3.53;1.17;;;3.40;99.90;;;;;;5054798;28;20252;-62
2023/02/25 08:07:13;;;;;;;5.03;1.08;;;3.40;99.90;;;;;;5054510;28;20228;-63
2023/02/25 08:09:41;;;;;;;0.88;0.80;;;3.40;99.90;;;;;;5053168;28;20257;-64
2023/02/25 08:12:09;;;;;;;2.67;0.80;;;3.40;99.90;;;;;;5053537;28;20694;-62
2023/02/25 08:14:38;;;;;;;2.65;0.88;;;3.40;99.90;;;;;;5053528;28;20228;-61
2023/02/25 08:17:05;;;;;;;3.17;0.90;;;3.30;99.90;;;;;;5053626;28;20220;-63
2023/02/25 08:19:32;;;;;;;1.30;0.88;;;3.30;99.90;;;;;;5054212;28;20220;-61
2023/02/25 08:21:59;;;;;;;1.80;0.80;;;3.30;99.90;;;;;;5053564;28;20260;-64
2023/02/25 08:24:25;;;;;;;1.45;1.23;;;3.30;99.90;;;;;;5057852;28;20208;-62
2023/02/25 08:26:53;;;;;;;1.75;1.00;;;3.40;99.90;;;;;;5069447;28;20212;-63
2023/02/25 08:29:21;;;;;;;2.40;1.10;;;3.50;99.90;;;;;;5061598;28;20224;-64
2023/02/25 08:31:50;;;;;;;1.80;1.10;;;3.50;99.90;;;;;;5057097;28;20599;-63
2023/02/25 08:34:17;;;;;;;2.92;0.80;;;3.60;99.50;;;;;;5068021;28;20630;-63
2023/02/25 08:36:44;;;;;;;1.10;1.00;;;3.70;98.70;;;;;;5073864;28;20217;-62
2023/02/25 08:39:11;;;;;;;3.75;1.55;;;3.80;98.90;;;;;;5059761;28;20225;-63
2023/02/25 08:41:38;;;;;;;2.47;1.00;;;3.90;98.40;;;;;;5075069;28;20229;-63
2023/02/25 08:44:05;;;;;;;2.35;1.50;;;4.00;98.10;;;;;;5073728;28;20205;-62
2023/02/25 08:46:33;;;;;;;1.75;0.80;;;4.00;96.20;;;;;;5074424;28;20554;-63
2023/02/25 08:49:00;;;;;;;3.63;1.00;;;4.00;95.80;;;;;;5073123;28;20312;-63
2023/02/25 08:51:32;;;;;;;6.70;0.90;;;4.10;95.50;;;;;;5060766;28;20224;-63
2023/02/25 08:54:00;;;;;;;3.40;0.80;;;4.10;94.30;;;;;;5073693;28;20205;-63
2023/02/25 08:56:27;;;;;;;2.20;1.20;;;4.10;91.70;;;;;;5067789;28;20202;-62
2023/02/25 08:58:54;;;;;;;0.90;0.70;;;4.10;91.70;;;;;;5063438;28;20232;-62
2023/02/25 09:01:21;;;;;;;3.50;1.17;;;4.20;91.60;;;;;;5077131;28;20574;-64
2023/02/25 09:03:53;;;;;;;1.48;0.90;;;4.30;91.70;;;;;;5061406;28;20201;-63
2023/02/25 09:06:22;;;;;;;1.35;0.80;;;4.30;91.40;;;;;;5059375;28;20201;-63
2023/02/25 09:08:48;;;;;;;1.88;1.27;;;4.40;91.30;;;;;;5058095;28;20221;-64
2023/02/25 09:11:15;;;;;;;2.83;1.10;;;4.40;90.60;;;;;;5058031;28;20225;-64
2023/02/25 09:13:43;;;;;;;2.17;0.90;;;4.30;90.20;;;;;;5057895;28;20209;-64
2023/02/25 09:16:10;;;;;;;1.85;1.10;;;4.30;90.20;;;;;;5056801;28;20284;-64
2023/02/25 09:18:37;;;;;;;1.00;0.90;;;4.20;90.60;;;;;;5056389;28;20630;-64
2023/02/25 09:21:05;;;;;;;1.60;0.80;;;4.10;91.20;;;;;;5060305;28;20196;-64
2023/02/25 09:23:32;;;;;;;1.98;1.08;;;4.10;91.70;;;;;;5062940;28;20233;-63
2023/02/25 09:26:03;;;;;;;1.90;1.15;;;4.10;92.10;;;;;;5057312;28;20213;-63
2023/02/25 09:28:30;;;;;;;1.00;0.90;;;4.00;92.30;;;;;;5056989;28;20928;-63
2023/02/25 09:30:57;;;;;;;1.20;0.93;;;4.00;92.60;;;;;;5057397;28;20222;-64
2023/02/25 09:33:24;;;;;;;1.17;0.95;;;4.00;93.10;;;;;;5056943;28;20206;-63
2023/02/25 09:35:51;;;;;;;1.83;1.17;;;4.00;92.90;;;;;;5056838;28;20205;-63
2023/02/25 09:38:20;;;;;;;3.22;1.00;;;4.00;93.10;;;;;;5056588;28;20248;-63
2023/02/25 09:40:48;;;;;;;1.50;0.93;;;4.00;93.10;;;;;;5056659;28;20208;-62
2023/02/25 09:43:21;;;;;;;1.63;0.80;;;4.00;92.90;;;;;;5056554;28;20690;-66
2023/02/25 09:45:52;;;;;;;0.80;0.70;;;4.00;93.00;;;;;;5057402;28;20545;-64
2023/02/25 09:48:24;;;;;;;1.70;0.90;;;4.10;93.50;;;;;;5056221;28;20232;-65
2023/02/25 09:50:57;;;;;;;1.23;1.00;;;4.10;93.70;;;;;;5056171;28;20648;-65
2023/02/25 09:53:30;;;;;;;1.85;1.15;;;4.10;93.80;;;;;;5056165;28;20190;-62
2023/02/25 09:55:58;;;;;;;1.63;0.90;;;4.20;94.30;;;;;;5056098;28;20659;-64
2023/02/25 09:58:30;;;;;;;1.58;0.85;;;4.20;94.60;;;;;;5056635;28;20198;-63
2023/02/25 10:01:03;;;;;;;5.07;1.23;;;4.30;94.70;;;;;;5056476;28;20650;-63
2023/02/25 10:03:47;;;;;;;0.63;0.60;;;4.30;94.70;;;;;;5056923;28;20200;-63
2023/02/25 10:06:19;;;;;;;2.63;1.25;;;4.30;95.40;;;;;;5056589;28;20182;-64
2023/02/25 10:08:54;;;;;;;4.93;0.98;;;4.30;95.90;;;;;;5057025;28;20221;-64
2023/02/25 10:11:32;;;;;;;1.83;1.05;;;4.30;96.00;;;;;;5057069;28;20201;-64
2023/02/25 10:14:09;;;;;;;3.45;1.30;;;4.20;96.00;;;;;;5059246;28;20612;-64
2023/02/25 10:16:43;;;;;;;1.45;0.80;;;4.10;96.40;;;;;;5061109;28;20289;-64
2023/02/25 10:19:20;;;;;;;1.45;0.95;;;4.10;96.20;;;;;;5059877;28;20228;-63
2023/02/25 10:22:05;;;;;;;1.63;1.00;;;4.10;96.30;;;;;;5059028;28;20182;-65
2023/02/25 10:24:38;;;;;;;2.42;0.95;;;4.10;96.60;;;;;;5057425;28;20196;-63
2023/02/25 10:27:16;;;;;;;3.85;2.78;;;4.20;96.80;;;;;;5056623;28;20716;-64
2023/02/25 10:29:48;;;;;;;1.05;0.95;;;4.20;95.70;;;;;;5057094;28;20226;-65
2023/02/25 10:32:21;;;;;;;1.50;1.10;;;4.30;95.60;;;;;;5055998;28;20220;-64
2023/02/25 10:34:50;;;;;;;1.10;0.90;;;4.30;94.90;;;;;;5055826;28;20182;-64
2023/02/25 10:37:20;;;;;;;2.42;1.15;;;4.30;94.90;;;;;;5055281;28;20587;-64
2023/02/25 10:39:57;;;;;;;1.17;0.85;;;4.40;95.10;;;;;;5057034;28;20229;-64
2023/02/25 10:42:24;;;;;;;5.30;1.73;;;4.40;94.30;;;;;;5057151;28;20661;-63
2023/02/25 10:44:51;;;;;;;2.80;1.00;;;4.10;95.20;;;;;;5056778;28;20546;-64
2023/02/25 10:47:26;;;;;;;2.88;0.80;;;3.80;96.90;;;;;;5057201;28;20206;-64
2023/02/25 10:50:18;;;;;;;3.90;0.70;;;3.70;97.90;;;;;;5058044;28;20239;-64
2023/02/25 10:52:54;;;;;;;2.10;0.98;;;3.70;98.00;;;;;;5057204;28;20206;-64
2023/02/25 10:55:36;;;;;;;2.17;0.70;;;3.70;97.70;;;;;;5054516;28;20209;-64
2023/02/25 10:58:04;;;;;;;1.65;1.30;;;3.80;96.30;;;;;;5054920;28;20272;-64
2023/02/25 11:00:35;;;;;;;1.42;0.90;;;3.80;94.80;;;;;;5055379;28;20236;-64
2023/02/25 11:03:04;;;;;;;1.63;0.82;;;3.90;94.30;;;;;;5055483;28;20217;-64
2023/02/25 11:05:35;;;;;;;1.90;0.88;;;4.00;93.50;;;;;;5056348;28;20217;-64
2023/02/25 11:08:05;;;;;;;1.25;0.85;;;4.10;93.00;;;;;;5055552;28;20189;-65
2023/02/25 11:10:34;;;;;;;1.20;0.90;;;4.10;91.10;;;;;;5056459;28;20234;-65
2023/02/25 11:13:02;;;;;;;1.00;0.90;;;4.10;90.30;;;;;;5055832;28;20228;-64
2023/02/25 11:15:34;;;;;;;1.02;1.02;;;4.10;90.10;;;;;;5055910;28;20251;-63
2023/02/25 11:18:24;;;;;;;1.40;1.05;;;4.10;89.60;;;;;;5056625;28;20197;-64
2023/02/25 11:20:55;;;;;;;2.08;1.35;;;4.20;90.00;;;;;;5058567;28;20186;-63
2023/02/25 11:23:24;;;;;;;3.20;1.00;;;4.30;85.40;;;;;;5056484;28;20210;-65
2023/02/25 11:25:52;;;;;;;2.25;1.10;;;4.30;83.50;;;;;;5055596;28;20206;-64
2023/02/25 11:28:29;;;;;;;2.22;0.93;;;4.30;84.10;;;;;;5055383;28;20205;-64
2023/02/25 11:31:04;;;;;;;1.30;1.20;;;4.40;84.20;;;;;;5055736;28;20190;-64
2023/02/25 11:33:35;;;;;;;1.92;1.20;;;4.40;83.30;;;;;;5054354;28;20193;-65
2023/02/25 11:36:02;;;;;;;2.15;1.15;;;4.30;83.60;;;;;;5054759;28;20182;-63
2023/02/25 11:38:34;;;;;;;2.10;1.00;;;4.30;85.50;;;;;;5054677;28;20292;-64
2023/02/25 11:41:02;;;;;;;2.35;1.58;;;4.20;87.60;;;;;;5054675;28;20186;-64
2023/02/25 11:43:38;;;;;;;2.13;1.17;;;4.20;88.80;;;;;;5054871;28;20197;-65
2023/02/25 11:46:10;;;;;;;1.92;1.05;;;4.20;88.40;;;;;;5054469;28;20190;-64
2023/02/25 11:48:47;;;;;;;3.47;1.10;;;4.10;88.90;;;;;;5054226;28;20229;-64
2023/02/25 11:51:24;;;;;;;1.45;1.00;;;4.10;89.20;;;;;;5054224;28;20189;-64
2023/02/25 11:54:13;;;;;;;2.35;1.30;;;4.10;89.20;;;;;;5054105;28;20196;-64
2023/02/25 11:56:47;;;;;;;1.40;1.27;;;4.10;87.20;;;;;;5054175;28;20784;-63
2023/02/25 11:59:35;;;;;;;2.90;1.77;;;4.20;85.20;;;;;;5054203;28;20221;-65
2023/02/25 12:02:29;;;;;;;1.30;1.08;;;4.30;84.30;;;;;;5053915;28;20229;-64
2023/02/25 12:05:56;;;;;;;3.00;1.55;;;4.30;82.60;;;;;;5054453;28;20189;-63
2023/02/25 12:08:44;;;;;;;2.53;1.40;;;4.30;80.30;;;;;;4959033;28;20214;-64
2023/02/25 12:11:44;;;;;;;2.22;1.75;;;4.20;79.40;;;;;;4992500;28;20598;-65
2023/02/25 12:14:43;;;;;;;2.17;1.67;;;4.10;80.40;;;;;;5049263;28;20649;-64
2023/02/25 12:17:59;;;;;;;1.80;1.25;;;4.00;81.40;;;;;;5053553;28;20550;-64
2023/02/25 12:21:04;;;;;;;1.20;1.10;;;4.10;83.00;;;;;;5052943;28;20218;-64
2023/02/25 12:24:03;;;;;;;2.08;1.23;;;4.10;83.00;;;;;;5067932;28;20203;-64
2023/02/25 12:26:46;;;;;;;2.55;1.60;;;4.10;83.60;;;;;;5048780;28;20279;-62
2023/02/25 12:29:48;;;;;;;1.52;1.10;;;4.10;83.50;;;;;;5053734;28;20225;-64
2023/02/25 12:32:41;;;;;;;9.57;1.42;;;4.20;84.30;;;;;;5054421;28;20212;-64
2023/02/25 12:35:29;;;;;;;2.35;1.00;;;4.30;82.30;;;;;;5058781;28;20662;-64
2023/02/25 12:38:20;;;;;;;2.40;1.10;;;4.30;80.40;;;;;;5068033;28;20197;-63
2023/02/25 12:41:16;;;;;;;3.58;1.67;;;4.30;78.90;;;;;;5045311;28;20201;-62
2023/02/25 12:43:49;;;;;;;3.58;1.67;;;4.40;77.70;;;;;;5059728;28;20193;-64
2023/02/25 12:46:26;;;;;;;2.25;0.70;;;4.40;78.20;;;;;;5064530;28;20210;-63
2023/02/25 12:49:17;;;;;;;3.40;1.30;;;4.40;78.50;;;;;;5062274;28;20217;-64
2023/02/25 12:52:02;;;;;;;1.20;0.95;;;4.40;78.00;;;;;;5076743;28;20204;-63
2023/02/25 12:54:51;;;;;;;3.60;1.20;;;4.40;77.20;;;;;;5078412;28;20212;-64
2023/02/25 12:57:39;;;;;;;2.80;1.40;;;4.50;76.40;;;;;;5078773;28;20189;-64
2023/02/25 13:00:32;;;;;;;1.77;1.25;;;4.50;75.80;;;;;;5079309;28;20225;-64
2023/02/25 13:03:20;;;;;;;1.30;0.77;;;4.60;75.20;;;;;;5079535;28;20185;-64
2023/02/25 13:06:12;;;;;;;1.27;1.10;;;4.50;73.00;;;;;;5063154;28;20194;-65
2023/02/25 13:09:00;;;;;;;2.00;1.30;;;4.40;71.80;;;;;;5079622;28;20229;-64
2023/02/25 13:11:38;;;;;;;1.20;1.00;;;4.20;71.70;;;;;;5071722;28;20201;-64
2023/02/25 13:14:36;;;;;;;2.88;1.23;;;4.10;71.50;;;;;;5078897;28;20181;-64
2023/02/25 13:17:31;;;;;;;1.30;0.95;;;4.00;72.30;;;;;;5077668;28;20211;-65
2023/02/25 13:20:38;;;;;;;2.50;1.17;;;4.00;72.30;;;;;;5067884;28;20220;-65
2023/02/25 13:23:31;;;;;;;2.15;1.05;;;3.90;73.10;;;;;;5067322;28;20193;-64
2023/02/25 13:26:16;;;;;;;6.75;1.00;;;3.90;74.60;;;;;;5068379;28;20193;-64
2023/02/25 13:28:55;;;;;;;1.70;0.98;;;3.90;75.70;;;;;;5068027;28;20593;-63
2023/02/25 13:31:34;;;;;;;1.77;0.98;;;4.00;76.10;;;;;;5082656;28;20197;-64
2023/02/25 13:34:13;;;;;;;2.05;1.00;;;4.00;76.20;;;;;;5079758;28;20228;-63
2023/02/25 13:37:05;;;;;;;2.75;0.90;;;4.10;75.70;;;;;;5079503;28;20272;-65
2023/02/25 13:39:56;;;;;;;1.35;1.20;;;4.10;74.60;;;;;;5078775;28;20239;-63
2023/02/25 13:42:41;;;;;;;2.10;1.02;;;4.20;74.90;;;;;;5040384;28;20650;-64
2023/02/25 13:45:46;;;;;;;1.75;0.80;;;4.40;74.60;;;;;;5063375;28;20208;-64
2023/02/25 13:48:38;;;;;;;2.90;0.98;;;4.70;74.30;;;;;;5077508;28;20215;-65
2023/02/25 13:51:19;;;;;;;1.88;0.90;;;4.90;72.50;;;;;;5077197;28;20181;-65
2023/02/25 13:54:09;;;;;;;1.42;1.05;;;4.90;69.40;;;;;;5077045;28;20208;-65
2023/02/25 13:56:56;;;;;;;1.90;1.48;;;4.70;67.50;;;;;;5077058;28;20268;-64
2023/02/25 13:59:40;;;;;;;1.45;1.05;;;4.60;66.90;;;;;;5076935;28;20224;-64
2023/02/25 14:02:23;;;;;;;1.80;1.00;;;4.50;65.80;;;;;;5076264;28;20662;-62
2023/02/25 14:05:16;;;;;;;3.92;0.90;;;4.50;64.50;;;;;;5077082;28;20196;-65
2023/02/25 14:07:54;;;;;;;2.08;1.02;;;4.60;63.70;;;;;;5076947;28;20189;-62
2023/02/25 14:10:47;;;;;;;3.63;0.90;;;4.70;62.30;;;;;;5075968;28;20315;-62
2023/02/25 14:13:46;;;;;;;1.40;1.00;;;4.80;60.60;;;;;;5076688;28;20212;-63
2023/02/25 14:16:28;;;;;;;2.97;1.00;;;4.80;59.90;;;;;;5076241;28;20289;-64
2023/02/25 14:19:06;;;;;;;2.75;0.88;;;4.80;59.30;;;;;;5065619;28;20706;-65
2023/02/25 14:22:04;;;;;;;1.23;1.02;;;4.70;59.10;;;;;;5056300;28;20537;-65
2023/02/25 14:24:38;;;;;;;6.38;1.80;;;4.70;59.20;;;;;;5055964;28;20182;-65
2023/02/25 14:27:19;;;;;;;0.98;0.85;;;4.60;59.50;;;;;;5055800;28;20657;-64
2023/02/25 14:30:02;;;;;;;3.40;1.13;;;4.50;58.40;;;;;;5055063;28;20228;-65
2023/02/25 14:32:44;;;;;;;2.85;0.85;;;4.40;58.10;;;;;;5054999;28;20599;-63
2023/02/25 14:35:38;;;;;;;4.30;1.05;;;4.40;58.10;;;;;;5055388;28;20193;-64
2023/02/25 14:38:09;;;;;;;4.32;1.20;;;4.40;58.00;;;;;;5055642;28;20186;-65
2023/02/25 14:40:41;;;;;;;3.47;1.88;;;4.50;58.00;;;;;;5055630;28;20592;-64
2023/02/25 14:43:32;;;;;;;3.92;1.20;;;4.50;57.80;;;;;;5055400;28;20178;-64
2023/02/25 14:46:04;;;;;;;1.27;1.17;;;4.50;57.80;;;;;;5056093;28;20236;-65
2023/02/25 14:48:38;;;;;;;2.35;1.50;;;4.50;57.90;;;;;;5055455;28;20547;-64
2023/02/25 14:51:37;;;;;;;3.53;1.02;;;4.50;56.80;;;;;;5058661;28;20228;-63
2023/02/25 14:54:36;;;;;;;2.28;1.10;;;4.40;56.10;;;;;;5066129;28;20224;-65
2023/02/25 14:57:26;;;;;;;4.40;1.50;;;4.30;56.00;;;;;;5047125;28;20209;-63
2023/02/25 15:00:22;;;;;;;3.47;1.65;;;4.30;56.30;;;;;;5064099;28;20586;-65
2023/02/25 15:03:15;;;;;;;0.88;0.75;;;4.40;56.00;;;;;;5068950;28;20196;-64
2023/02/25 15:05:55;;;;;;;7.00;1.63;;;4.50;55.90;;;;;;5059230;28;20540;-63
2023/02/25 15:08:47;;;;;;;3.97;1.48;;;4.50;55.60;;;;;;5055689;28;20233;-64
2023/02/25 15:11:36;;;;;;;2.83;1.30;;;4.50;55.70;;;;;;5058492;28;20197;-64
2023/02/25 15:14:42;;;;;;;3.05;1.00;;;4.40;56.00;;;;;;5071272;28;20303;-64
2023/02/25 15:17:33;;;;;;;7.13;2.55;;;4.30;56.70;;;;;;5060361;28;20205;-63
2023/02/25 15:20:18;;;;;;;4.82;1.45;;;4.30;57.40;;;;;;5061739;28;20713;-63
2023/02/25 15:23:03;;;;;;;2.67;1.40;;;4.20;57.60;;;;;;5058831;28;20648;-64
2023/02/25 15:25:38;;;;;;;1.65;1.02;;;4.20;57.20;;;;;;5062907;28;20624;-64
2023/02/25 15:28:41;;;;;;;1.40;1.10;;;4.20;56.70;;;;;;5060436;28;20692;-63
2023/02/25 15:31:40;;;;;;;2.33;1.13;;;4.20;56.50;;;;;;5063626;28;20205;-65
2023/02/25 15:34:37;;;;;;;2.33;1.27;;;4.20;56.30;;;;;;5059959;28;20301;-64
2023/02/25 15:37:21;;;;;;;2.50;1.30;;;4.20;55.90;;;;;;5064075;28;20213;-65
2023/02/25 15:39:51;;;;;;;2.42;1.40;;;4.10;55.40;;;;;;5063260;28;20216;-66
2023/02/25 15:42:40;;;;;;;2.17;1.35;;;4.10;55.40;;;;;;5061589;28;20201;-65
2023/02/25 15:45:38;;;;;;;2.58;1.20;;;4.10;55.40;;;;;;5065488;28;20201;-64
2023/02/25 15:48:29;;;;;;;3.30;1.55;;;4.00;55.40;;;;;;5073646;28;20197;-64
2023/02/25 15:50:58;;;;;;;3.35;1.23;;;4.00;55.80;;;;;;5060850;28;20698;-64
2023/02/25 15:53:40;;;;;;;2.47;1.75;;;4.00;55.60;;;;;;5074526;28;20216;-64
2023/02/25 15:56:45;;;;;;;1.35;1.10;;;3.90;55.80;;;;;;5063522;28;20201;-64
2023/02/25 15:59:43;;;;;;;2.15;1.20;;;3.90;56.00;;;;;;5054417;28;20279;-63
2023/02/25 16:02:40;;;;;;;3.60;0.95;;;3.80;55.70;;;;;;5068227;28;20201;-67
2023/02/25 16:05:19;;;;;;;6.80;1.50;;;3.80;55.60;;;;;;5073604;28;20192;-67
2023/02/25 16:07:51;;;;;;;3.20;1.20;;;3.80;55.60;;;;;;5067155;28;20185;-68
2023/02/25 16:10:26;;;;;;;5.10;1.70;;;3.80;55.50;;;;;;5053733;28;20810;-66
2023/02/25 16:12:57;;;;;;;5.55;1.70;;;3.80;55.60;;;;;;5053817;28;20213;-67
2023/02/25 16:15:29;;;;;;;2.45;0.88;;;3.80;55.80;;;;;;5054204;28;20644;-67
2023/02/25 16:18:00;;;;;;;1.52;0.80;;;3.80;56.10;;;;;;5054535;28;20208;-66
2023/02/25 16:20:33;;;;;;;11.43;2.08;;;3.70;56.40;;;;;;5053439;28;20245;-67
2023/02/25 16:23:02;;;;;;;2.45;1.50;;;3.70;56.70;;;;;;5053721;28;20193;-68
2023/02/25 16:25:36;;;;;;;3.20;1.40;;;3.70;57.00;;;;;;5054105;28;20210;-67
2023/02/25 16:28:11;;;;;;;4.85;1.38;;;3.60;57.60;;;;;;5061006;28;20567;-68
2023/02/25 16:30:43;;;;;;;5.15;1.83;;;3.60;57.60;;;;;;5074884;28;20189;-67
2023/02/25 16:33:20;;;;;;;2.05;1.20;;;3.50;56.80;;;;;;5073691;28;20206;-67
2023/02/25 16:35:52;;;;;;;2.65;1.05;;;3.50;56.90;;;;;;5073287;28;20202;-67
2023/02/25 16:38:27;;;;;;;2.25;1.00;;;3.40;56.70;;;;;;5084804;22;20237;-64
2023/02/25 16:40:54;;;;;;;2.78;1.30;;;3.40;56.70;;;;;;5053599;28;20276;-64
2023/02/25 16:43:24;;;;;;;4.60;1.95;;;3.40;56.60;;;;;;5054084;28;20209;-65
2023/02/25 16:45:55;;;;;;;2.95;1.33;;;3.40;56.50;;;;;;5053529;28;20197;-66
2023/02/25 16:48:28;;;;;;;3.83;1.55;;;3.40;56.60;;;;;;5053057;28;20226;-66
2023/02/25 16:50:55;;;;;;;2.05;1.25;;;3.40;56.50;;;;;;5054547;28;20194;-65
2023/02/25 16:53:26;;;;;;;2.45;1.52;;;3.40;56.60;;;;;;5039291;28;20234;-68
2023/02/25 16:55:58;;;;;;;4.32;1.60;;;3.40;56.70;;;;;;5034686;28;20193;-66
2023/02/25 16:58:27;;;;;;;6.25;1.95;;;3.40;56.80;;;;;;5034815;28;20231;-65
2023/02/25 17:00:56;;;;;;;1.27;1.17;;;3.40;56.80;;;;;;5033977;28;20566;-65
2023/02/25 17:03:25;;;;;;;4.05;1.65;;;3.40;57.00;;;;;;5034482;28;20206;-66
2023/02/25 17:06:01;;;;;;;3.53;1.30;;;3.30;57.20;;;;;;5035733;28;20198;-66
2023/02/25 17:08:29;;;;;;;2.30;1.63;;;3.30;57.80;;;;;;5035720;28;20223;-65
2023/02/25 17:10:59;;;;;;;3.72;1.88;;;3.20;58.40;;;;;;5035865;28;20203;-65
2023/02/25 17:13:28;;;;;;;2.45;1.38;;;3.10;59.20;;;;;;5055536;28;20226;-67
2023/02/25 17:15:57;;;;;;;2.88;1.35;;;3.00;60.10;;;;;;5046884;28;20191;-67
2023/02/25 17:18:28;;;;;;;5.53;1.23;;;2.90;61.10;;;;;;5038138;28;20245;-65
2023/02/25 17:21:02;;;;;;;2.03;1.30;;;2.80;61.90;;;;;;5039635;28;20267;-64
2023/02/25 17:23:30;;;;;;;3.65;1.70;;;2.80;62.50;;;;;;5039763;28;20191;-65
2023/02/25 17:25:58;;;;;;;1.77;1.20;;;2.80;63.20;;;;;;5040085;28;20207;-66
2023/02/25 17:28:30;;;;;;;3.60;1.75;;;2.80;65.50;;;;;;5039475;28;20226;-66
2023/02/25 17:31:07;;;;;;;4.03;1.90;;;2.60;68.30;;;;;;5039616;28;20187;-64
2023/02/25 17:33:34;;;;;;;6.00;1.70;;;2.50;71.50;;;;;;5039058;28;20206;-65
2023/02/25 17:36:07;;;;;;;5.78;2.10;;;2.40;74.60;;;;;;5039932;28;20256;-65
2023/02/25 17:38:35;;;;;;;2.58;1.65;;;2.40;77.40;;;;;;5038977;28;20317;-65
2023/02/25 17:41:03;;;;;;;3.08;1.33;;;2.30;79.10;;;;;;5038064;28;20222;-66
2023/02/25 17:43:35;;;;;;;5.97;1.70;;;2.30;80.60;;;;;;5038557;28;20199;-65
2023/02/25 17:46:03;;;;;;;3.35;2.25;;;2.30;81.60;;;;;;5038122;28;20205;-67
2023/02/25 17:48:34;;;;;;;3.58;1.63;;;2.30;82.10;;;;;;5037745;28;20302;-66